Time;durP1;ratioP1;P1;durP2;ratioP2;P2;SDS_P1;SDS_P2;PMS_P1;PMS_P2;Temp;Humidity;BMP_temperature;BMP_pressure;BME280_temperature;BME280_humidity;BME280_pressure;Samples;Min_cycle;Max_cycle;Signal;HPM_P1;HPM_P2
2022/08/17 00:02:10;;;;;;;;;;;24.60;58.80;;;;;;6323737;27;19958;-44
2022/08/17 00:05:29;;;;;;;;;;;24.80;58.90;;;;;;6328451;27;19927;-46
2022/08/17 00:08:33;;;;;;;;;;;24.50;58.80;;;;;;6307374;27;19931;-41
2022/08/17 00:11:36;;;;;;;;;;;24.60;58.90;;;;;;6305033;27;19961;-42
2022/08/17 00:14:38;;;;;;;;;;;24.50;58.80;;;;;;6325010;27;19928;-43
2022/08/17 00:17:40;;;;;;;;;;;24.60;58.90;;;;;;6325526;27;19924;-43
2022/08/17 00:20:42;;;;;;;;;;;24.50;58.90;;;;;;6307303;27;20916;-44
2022/08/17 00:23:44;;;;;;;;;;;24.60;58.90;;;;;;6322007;27;20067;-44
2022/08/17 00:26:51;;;;;;;;;;;24.50;58.90;;;;;;6313790;27;19927;-42
2022/08/17 00:29:56;;;;;;;;;;;24.60;59.00;;;;;;6316647;27;20039;-42
2022/08/17 00:32:57;;;;;;;;;;;24.50;58.90;;;;;;6315483;27;20986;-46
2022/08/17 00:36:20;;;;;;;;;;;24.60;58.90;;;;;;6281515;27;19927;-42
2022/08/17 00:39:21;;;;;;;;;;;24.50;58.90;;;;;;6296232;27;19919;-45
2022/08/17 00:42:23;;;;;;;;;;;24.40;58.80;;;;;;6318214;27;19968;-44
2022/08/17 00:45:31;;;;;;;;;;;24.50;58.90;;;;;;6321156;27;19927;-44
2022/08/17 00:48:33;;;;;;;;;;;24.60;58.90;;;;;;6324982;27;21148;-41
2022/08/17 00:51:37;;;;;;;;;;;24.40;58.90;;;;;;6324716;27;20012;-42
2022/08/17 00:54:40;;;;;;;;;;;24.40;58.80;;;;;;6304089;27;20038;-40
2022/08/17 00:57:45;;;;;;;;;;;24.50;58.90;;;;;;6322226;27;19968;-43
2022/08/17 01:00:48;;;;;;;;;;;24.50;58.90;;;;;;6326921;27;20046;-46
2022/08/17 01:03:50;;;;;;;;;;;24.30;58.80;;;;;;6316349;27;20166;-43
2022/08/17 01:06:52;;;;;;;;;;;24.60;59.30;;;;;;6306119;27;19927;-44
2022/08/17 01:09:54;;;;;;;;;;;24.50;59.00;;;;;;6310489;27;19934;-41
2022/08/17 01:12:55;;;;;;;;;;;24.50;59.00;;;;;;6308834;27;20193;-40
2022/08/17 01:15:59;;;;;;;;;;;24.60;59.00;;;;;;6313261;27;19930;-45
2022/08/17 01:19:02;;;;;;;;;;;24.50;59.00;;;;;;6309472;27;20258;-41
2022/08/17 01:22:06;;;;;;;;;;;24.50;59.00;;;;;;6307339;27;20455;-42
2022/08/17 01:25:09;;;;;;;;;;;24.60;59.00;;;;;;6310745;27;20183;-42
2022/08/17 01:28:10;;;;;;;;;;;24.30;58.90;;;;;;6307942;27;20736;-41
2022/08/17 01:31:37;;;;;;;;;;;24.60;59.00;;;;;;6291116;27;19923;-42
2022/08/17 01:34:38;;;;;;;;;;;24.50;59.00;;;;;;6291754;27;19973;-42
2022/08/17 01:37:51;;;;;;;;;;;24.90;59.20;;;;;;6314181;27;20306;-41
2022/08/17 01:40:57;;;;;;;;;;;24.50;59.00;;;;;;6293802;27;19923;-43
2022/08/17 01:44:01;;;;;;;;;;;24.50;59.10;;;;;;6311946;27;19944;-40
2022/08/17 01:47:03;;;;;;;;;;;24.60;59.10;;;;;;6311339;27;20798;-40
2022/08/17 01:50:06;;;;;;;;;;;24.50;59.00;;;;;;6309795;27;20037;-41
2022/08/17 01:53:10;;;;;;;;;;;24.40;59.00;;;;;;6289342;27;20096;-42
2022/08/17 01:56:13;;;;;;;;;;;24.50;59.00;;;;;;6308710;27;19931;-41
2022/08/17 01:59:15;;;;;;;;;;;24.50;59.10;;;;;;6310147;27;19973;-41
2022/08/17 02:02:17;;;;;;;;;;;24.90;59.30;;;;;;6309073;27;20182;-41
2022/08/17 02:05:32;;;;;;;;;;;24.30;59.00;;;;;;6314606;27;20219;-43
2022/08/17 02:08:34;;;;;;;;;;;24.70;59.20;;;;;;6291511;27;20718;-42
2022/08/17 02:11:57;;;;;;;;;;;24.30;59.00;;;;;;6280699;27;20527;-43
2022/08/17 02:14:58;;;;;;;;;;;24.30;59.00;;;;;;6291844;27;20281;-45
2022/08/17 02:18:00;;;;;;;;;;;24.30;59.00;;;;;;6309162;27;20194;-43
2022/08/17 02:21:02;;;;;;;;;;;24.50;59.10;;;;;;6287044;27;20896;-41
2022/08/17 02:24:04;;;;;;;;;;;24.30;59.00;;;;;;6309150;27;20706;-45
2022/08/17 02:27:06;;;;;;;;;;;24.50;59.10;;;;;;6309203;27;20027;-41
2022/08/17 02:30:09;;;;;;;;;;;24.40;59.10;;;;;;6321724;27;19919;-41
2022/08/17 02:33:31;;;;;;;;;;;24.30;59.00;;;;;;6312438;27;19919;-42
2022/08/17 02:36:44;;;;;;;;;;;24.20;59.00;;;;;;6309084;27;20259;-44
2022/08/17 02:39:46;;;;;;;;;;;24.30;59.00;;;;;;6323005;27;19962;-41
2022/08/17 02:42:48;;;;;;;;;;;24.50;59.20;;;;;;6329510;27;20834;-41
2022/08/17 02:45:50;;;;;;;;;;;24.40;59.10;;;;;;6325901;27;21664;-42
2022/08/17 02:48:52;;;;;;;;;;;24.40;59.10;;;;;;6323059;27;19927;-42
2022/08/17 02:51:55;;;;;;;;;;;24.20;59.00;;;;;;6322745;27;19959;-43
2022/08/17 02:54:56;;;;;;;;;;;24.30;59.70;;;;;;6328185;27;20888;-42
2022/08/17 02:57:58;;;;;;;;;;;24.30;59.10;;;;;;6326357;27;19948;-42
2022/08/17 03:00:59;;;;;;;;;;;24.10;59.00;;;;;;6325728;27;20041;-43
2022/08/17 03:04:01;;;;;;;;;;;24.30;59.70;;;;;;6323369;27;20793;-42
2022/08/17 03:07:03;;;;;;;;;;;24.20;59.00;;;;;;6322747;27;19927;-44
2022/08/17 03:10:10;;;;;;;;;;;24.50;59.20;;;;;;6322633;27;19927;-44
2022/08/17 03:13:13;;;;;;;;;;;24.30;59.10;;;;;;6325607;27;19923;-43
2022/08/17 03:16:14;;;;;;;;;;;24.50;59.20;;;;;;6328112;27;19963;-43
2022/08/17 03:19:16;;;;;;;;;;;24.40;59.20;;;;;;6331746;27;20045;-41
2022/08/17 03:22:18;;;;;;;;;;;24.20;59.00;;;;;;6331204;27;20050;-43
2022/08/17 03:25:41;;;;;;;;;;;24.30;59.00;;;;;;6327432;27;20059;-45
2022/08/17 03:28:45;;;;;;;;;;;24.30;58.90;;;;;;6343859;27;20030;-43
2022/08/17 03:31:46;;;;;;;;;;;24.40;59.00;;;;;;6347533;27;20053;-43
2022/08/17 03:34:48;;;;;;;;;;;24.40;59.10;;;;;;6327659;27;19927;-43
2022/08/17 03:37:50;;;;;;;;;;;24.20;58.90;;;;;;6343994;27;19927;-42
2022/08/17 03:41:04;;;;;;;;;;;24.20;59.00;;;;;;6348652;27;20663;-43
2022/08/17 03:44:06;;;;;;;;;;;24.30;58.90;;;;;;6347354;27;19923;-42
2022/08/17 03:57:09;;;;;;;;;;;24.50;59.20;;;;;;6331637;27;19927;-43
2022/08/17 04:00:12;;;;;;;;;;;24.40;59.20;;;;;;6329263;27;20041;-43
2022/08/17 04:03:13;;;;;;;;;;;24.10;59.00;;;;;;6349509;27;19966;-43
2022/08/17 04:06:15;;;;;;;;;;;24.30;59.10;;;;;;6348897;27;19970;-43
2022/08/17 04:09:16;;;;;;;;;;;24.10;59.00;;;;;;6346758;27;19931;-43
2022/08/17 04:12:19;;;;;;;;;;;24.30;59.20;;;;;;6348131;27;19981;-43
2022/08/17 04:15:21;;;;;;;;;;;24.30;59.20;;;;;;6331936;27;19930;-45
2022/08/17 04:18:23;;;;;;;;;;;24.20;59.10;;;;;;6321162;27;20050;-45
2022/08/17 04:21:24;;;;;;;;;;;24.00;59.10;;;;;;6338900;27;21226;-43
2022/08/17 04:24:26;;;;;;;;;;;24.30;59.20;;;;;;6344262;27;20802;-43
2022/08/17 04:27:27;;;;;;;;;;;24.20;59.10;;;;;;6340647;27;19927;-42
2022/08/17 04:30:31;;;;;;;;;;;24.10;59.10;;;;;;6343887;27;19969;-43
2022/08/17 04:33:32;;;;;;;;;;;24.20;59.10;;;;;;6337717;27;20007;-42
2022/08/17 04:36:34;;;;;;;;;;;24.40;59.30;;;;;;6334856;27;20026;-42
2022/08/17 04:39:35;;;;;;;;;;;24.10;59.00;;;;;;6338071;27;19934;-48
2022/08/17 04:42:37;;;;;;;;;;;24.20;59.10;;;;;;6336103;27;19973;-41
2022/08/17 04:45:39;;;;;;;;;;;24.30;59.10;;;;;;6326980;27;20038;-43
2022/08/17 04:48:41;;;;;;;;;;;24.00;59.00;;;;;;6334949;27;20809;-42
2022/08/17 04:51:44;;;;;;;;;;;24.10;59.10;;;;;;6319051;27;19968;-43
2022/08/17 04:54:57;;;;;;;;;;;24.40;59.20;;;;;;6316015;27;19936;-43
2022/08/17 04:57:59;;;;;;;;;;;24.20;59.10;;;;;;6331804;27;19987;-41
2022/08/17 05:01:01;;;;;;;;;;;24.20;59.10;;;;;;6335015;27;20025;-44
2022/08/17 05:04:03;;;;;;;;;;;24.10;59.70;;;;;;6332327;27;19919;-43
2022/08/17 05:07:25;;;;;;;;;;;24.00;59.10;;;;;;6312715;27;20652;-42
2022/08/17 05:10:33;;;;;;;;;;;24.30;59.20;;;;;;6321841;27;19957;-43
2022/08/17 05:13:37;;;;;;;;;;;24.20;59.20;;;;;;6311308;27;19919;-44
2022/08/17 05:16:39;;;;;;;;;;;23.70;59.00;;;;;;6326104;27;20037;-42
2022/08/17 05:19:41;;;;;;;;;;;24.00;59.10;;;;;;6331698;27;19929;-43
2022/08/17 05:22:46;;;;;;;;;;;24.00;59.10;;;;;;6334219;27;20033;-45
2022/08/17 05:25:48;;;;;;;;;;;24.20;59.20;;;;;;6333977;27;19927;-43
2022/08/17 05:28:51;;;;;;;;;;;24.00;59.10;;;;;;6323819;27;19927;-46
2022/08/17 05:31:53;;;;;;;;;;;24.20;59.30;;;;;;6329800;27;19931;-43
2022/08/17 05:34:58;;;;;;;;;;;24.20;59.20;;;;;;6331185;27;20035;-44
2022/08/17 05:38:00;;;;;;;;;;;24.30;59.30;;;;;;6329050;27;20120;-43
2022/08/17 05:41:04;;;;;;;;;;;23.90;59.10;;;;;;6333102;27;19931;-44
2022/08/17 05:44:05;;;;;;;;;;;24.40;59.30;;;;;;6311210;27;20246;-45
2022/08/17 05:47:07;;;;;;;;;;;24.10;59.20;;;;;;6327753;27;19927;-41
2022/08/17 05:50:21;;;;;;;;;;;24.30;59.30;;;;;;6322560;27;20739;-43
2022/08/17 05:53:30;;;;;;;;;;;24.20;59.20;;;;;;6305072;27;20424;-43
2022/08/17 05:56:46;;;;;;;;;;;24.20;59.30;;;;;;6323022;27;19960;-42
2022/08/17 05:59:52;;;;;;;;;;;23.90;59.10;;;;;;6321072;27;19927;-45
2022/08/17 06:03:05;;;;;;;;;;;24.00;59.10;;;;;;6317233;27;19923;-43
2022/08/17 06:06:13;;;;;;;;;;;24.00;59.20;;;;;;6331030;27;20282;-41
2022/08/17 06:09:24;;;;;;;;;;;24.20;59.20;;;;;;6308938;27;19927;-41
2022/08/17 06:12:39;;;;;;;;;;;24.30;59.30;;;;;;6328092;27;20623;-40
2022/08/17 06:15:43;;;;;;;;;;;24.20;59.20;;;;;;6307022;27;19923;-41
2022/08/17 06:18:49;;;;;;;;;;;23.90;59.00;;;;;;6322341;27;19966;-41
2022/08/17 06:21:52;;;;;;;;;;;24.20;59.20;;;;;;6323562;27;19921;-41
2022/08/17 06:24:55;;;;;;;;;;;24.30;59.30;;;;;;6325473;27;19933;-43
2022/08/17 06:28:01;;;;;;;;;;;24.20;59.20;;;;;;6330753;27;20396;-40
2022/08/17 06:31:05;;;;;;;;;;;24.20;59.10;;;;;;6321611;27;19971;-43
2022/08/17 06:34:09;;;;;;;;;;;24.10;59.00;;;;;;6307520;27;19927;-41
2022/08/17 06:37:23;;;;;;;;;;;24.20;59.10;;;;;;6314354;27;20049;-43
2022/08/17 06:40:36;;;;;;;;;;;24.20;59.10;;;;;;6317780;27;19922;-43
2022/08/17 06:43:44;;;;;;;;;;;23.90;58.80;;;;;;6305104;27;19972;-45
2022/08/17 06:46:52;;;;;;;;;;;24.20;59.00;;;;;;6294634;27;19926;-43
2022/08/17 06:49:58;;;;;;;;;;;24.20;59.00;;;;;;6267751;27;19977;-43
2022/08/17 06:53:04;;;;;;;;;;;24.20;59.00;;;;;;6262804;27;20132;-45
2022/08/17 06:56:07;;;;;;;;;;;24.30;59.00;;;;;;6271941;27;20253;-43
2022/08/17 06:59:10;;;;;;;;;;;24.30;59.00;;;;;;6237454;27;21102;-42
2022/08/17 07:02:14;;;;;;;;;;;24.40;59.00;;;;;;6271438;27;20920;-46
2022/08/17 07:05:17;;;;;;;;;;;24.30;58.90;;;;;;6253812;27;19927;-40
2022/08/17 07:08:21;;;;;;;;;;;24.30;58.90;;;;;;6274505;27;22041;-45
2022/08/17 07:11:33;;;;;;;;;;;26.10;59.90;;;;;;6281488;27;19927;-43
2022/08/17 07:14:37;;;;;;;;;;;24.50;58.80;;;;;;6287052;27;19952;-42
2022/08/17 07:17:39;;;;;;;;;;;24.50;58.70;;;;;;6213471;27;19970;-43
2022/08/17 07:20:50;;;;;;;;;;;24.50;58.70;;;;;;6252438;27;19933;-41
2022/08/17 07:23:59;;;;;;;;;;;24.60;58.60;;;;;;6250547;27;21153;-42
2022/08/17 07:27:02;;;;;;;;;;;24.70;58.60;;;;;;6254517;27;20058;-41
2022/08/17 07:30:07;;;;;;;;;;;24.50;58.50;;;;;;6240697;27;20069;-43
2022/08/17 07:33:13;;;;;;;;;;;24.70;58.50;;;;;;6233558;27;19927;-40
2022/08/17 07:36:23;;;;;;;;;;;24.50;58.50;;;;;;6235922;27;19927;-43
2022/08/17 07:39:30;;;;;;;;;;;24.50;58.50;;;;;;6235249;27;19999;-43
2022/08/17 07:42:32;;;;;;;;;;;24.60;58.60;;;;;;6253799;27;19931;-41
2022/08/17 07:49:14;;;;;;;;;;;24.60;58.60;;;;;;6261877;27;19927;-43
2022/08/17 07:52:26;;;;;;;;;;;24.70;58.60;;;;;;6257468;27;19933;-42
2022/08/17 07:55:48;;;;;;;;;;;24.70;58.40;;;;;;6223252;27;19929;-42
2022/08/17 07:59:04;;;;;;;;;;;24.70;58.40;;;;;;6252240;27;19934;-44
2022/08/17 08:02:26;;;;;;;;;;;24.80;58.20;;;;;;6248997;27;20166;-44
2022/08/17 08:05:46;;;;;;;;;;;24.50;58.00;;;;;;6192732;27;19933;-40
2022/08/17 08:08:53;;;;;;;;;;;24.80;58.10;;;;;;6249544;27;20020;-49
2022/08/17 08:11:55;;;;;;;;;;;24.90;58.10;;;;;;6232074;27;19933;-45
2022/08/17 08:14:58;;;;;;;;;;;25.00;58.20;;;;;;6227866;27;19930;-50
2022/08/17 08:18:01;;;;;;;;;;;24.90;58.00;;;;;;6237828;27;20060;-41
2022/08/17 08:21:08;;;;;;;;;;;25.20;58.20;;;;;;6228265;27;19934;-42
2022/08/17 08:24:16;;;;;;;;;;;24.90;58.00;;;;;;6247803;27;19954;-42
2022/08/17 08:27:24;;;;;;;;;;;25.00;58.00;;;;;;6250874;27;19933;-46
2022/08/17 08:30:27;;;;;;;;;;;25.00;58.10;;;;;;6234260;27;20015;-45
2022/08/17 08:33:41;;;;;;;;;;;24.80;58.00;;;;;;6253791;27;19933;-44
2022/08/17 08:36:49;;;;;;;;;;;25.00;58.10;;;;;;6265655;27;19996;-43
2022/08/17 08:40:19;;;;;;;;;;;24.70;58.00;;;;;;6241393;27;19931;-46
2022/08/17 08:43:25;;;;;;;;;;;25.00;58.20;;;;;;6226784;27;19934;-44
2022/08/17 08:46:29;;;;;;;;;;;24.90;58.30;;;;;;6233266;27;19981;-44
2022/08/17 08:49:40;;;;;;;;;;;24.70;58.20;;;;;;6245340;27;21377;-42
2022/08/17 08:53:13;;;;;;;;;;;24.90;58.40;;;;;;6226336;27;19927;-45
2022/08/17 08:56:17;;;;;;;;;;;24.90;58.50;;;;;;6230744;27;20895;-44
2022/08/17 08:59:32;;;;;;;;;;;24.70;58.40;;;;;;6239353;27;19934;-44
2022/08/17 09:02:45;;;;;;;;;;;24.90;58.60;;;;;;6244315;27;19930;-45
2022/08/17 09:05:57;;;;;;;;;;;24.80;58.60;;;;;;6227966;27;19952;-43
2022/08/17 09:09:03;;;;;;;;;;;24.80;58.70;;;;;;6233085;27;19927;-46
2022/08/17 09:12:12;;;;;;;;;;;24.70;58.60;;;;;;6213141;27;19931;-43
2022/08/17 09:15:16;;;;;;;;;;;25.10;58.80;;;;;;6224022;27;21495;-42
2022/08/17 09:18:20;;;;;;;;;;;24.80;58.70;;;;;;6244041;27;20007;-42
2022/08/17 09:21:43;;;;;;;;;;;24.70;58.60;;;;;;6222563;27;19940;-43
2022/08/17 09:24:55;;;;;;;;;;;24.70;58.60;;;;;;6237767;27;19928;-44
2022/08/17 09:28:00;;;;;;;;;;;24.90;58.70;;;;;;6208343;27;19976;-43
2022/08/17 09:31:05;;;;;;;;;;;24.60;58.50;;;;;;6199851;27;19927;-43
2022/08/17 09:34:08;;;;;;;;;;;24.90;58.60;;;;;;6235251;27;19971;-43
2022/08/17 09:37:17;;;;;;;;;;;24.90;58.60;;;;;;6242746;27;28048;-46
2022/08/17 09:40:22;;;;;;;;;;;24.90;58.60;;;;;;6245416;27;20132;-43
2022/08/17 09:43:29;;;;;;;;;;;24.70;58.50;;;;;;6244250;27;19927;-45
2022/08/17 09:46:34;;;;;;;;;;;25.00;58.60;;;;;;6257334;27;19934;-44
2022/08/17 09:49:42;;;;;;;;;;;25.00;58.60;;;;;;6255939;27;19927;-43
2022/08/17 09:52:44;;;;;;;;;;;25.00;58.70;;;;;;6263744;27;19923;-42
2022/08/17 09:56:01;;;;;;;;;;;25.00;58.50;;;;;;6245422;27;19931;-43
2022/08/17 09:59:12;;;;;;;;;;;25.00;58.50;;;;;;6244062;27;22494;-44
2022/08/17 10:02:23;;;;;;;;;;;24.90;58.50;;;;;;6259278;27;20001;-40
2022/08/17 10:05:31;;;;;;;;;;;25.00;58.60;;;;;;6242457;27;20061;-44
2022/08/17 10:08:38;;;;;;;;;;;25.10;58.60;;;;;;6240243;27;19926;-41
2022/08/17 10:15:03;;;;;;;;;;;25.00;58.50;;;;;;6249140;27;19935;-44
2022/08/17 10:18:17;;;;;;;;;;;25.10;58.60;;;;;;6252577;27;21588;-43
2022/08/17 10:28:15;;;;;;;;;;;24.90;58.60;;;;;;6235131;27;20908;-43
2022/08/17 10:31:26;;;;;;;;;;;25.00;58.70;;;;;;6243608;27;20739;-44
2022/08/17 10:34:43;;;;;;;;;;;24.90;58.70;;;;;;6243917;27;19927;-41
2022/08/17 10:37:51;;;;;;;;;;;24.90;58.80;;;;;;6272187;27;21094;-43
2022/08/17 10:40:56;;;;;;;;;;;25.00;58.90;;;;;;6278717;27;19927;-43
2022/08/17 10:44:00;;;;;;;;;;;24.90;58.90;;;;;;6252878;27;21201;-42
2022/08/17 10:47:25;;;;;;;;;;;24.90;58.90;;;;;;6280397;27;20340;-43
2022/08/17 10:50:41;;;;;;;;;;;24.90;59.50;;;;;;6283340;27;20026;-43
2022/08/17 10:53:50;;;;;;;;;;;24.90;58.90;;;;;;6261922;27;20753;-41
2022/08/17 10:56:53;;;;;;;;;;;24.90;59.00;;;;;;6269978;27;20045;-42
2022/08/17 10:59:55;;;;;;;;;;;24.70;58.90;;;;;;6257258;27;20274;-40
2022/08/17 11:02:58;;;;;;;;;;;24.90;59.00;;;;;;6255022;27;20234;-42
2022/08/17 11:06:05;;;;;;;;;;;24.90;59.00;;;;;;6271469;27;20100;-43
2022/08/17 11:09:21;;;;;;;;;;;24.70;58.90;;;;;;6284558;27;19931;-42
2022/08/17 11:12:29;;;;;;;;;;;24.70;59.00;;;;;;6275348;27;20348;-43
2022/08/17 11:15:40;;;;;;;;;;;24.70;59.00;;;;;;6286796;27;20046;-42
2022/08/17 11:18:51;;;;;;;;;;;24.80;59.10;;;;;;6270687;27;20097;-41
2022/08/17 11:22:00;;;;;;;;;;;24.60;59.00;;;;;;6257606;27;20079;-43
2022/08/17 11:25:11;;;;;;;;;;;24.80;59.10;;;;;;6239719;27;20503;-41
2022/08/17 11:28:14;;;;;;;;;;;24.80;59.10;;;;;;6243839;27;20035;-42
2022/08/17 11:31:25;;;;;;;;;;;24.80;59.20;;;;;;6267614;27;19970;-43
2022/08/17 11:34:43;;;;;;;;;;;25.10;59.20;;;;;;6237289;27;21605;-44
2022/08/17 11:37:49;;;;;;;;;;;24.80;59.10;;;;;;6247302;27;19927;-45
2022/08/17 11:41:09;;;;;;;;;;;24.80;59.00;;;;;;6242697;27;20046;-42
2022/08/17 11:44:27;;;;;;;;;;;24.90;59.10;;;;;;6256639;27;20964;-43
2022/08/17 11:54:39;;;;;;;;;;;24.90;59.10;;;;;;6236649;27;20033;-45
2022/08/17 11:57:52;;;;;;;;;;;25.00;59.20;;;;;;6250370;27;20346;-41
2022/08/17 12:00:56;;;;;;;;;;;24.80;59.00;;;;;;6235136;27;21946;-43
2022/08/17 12:04:16;;;;;;;;;;;24.70;58.90;;;;;;6232824;27;19928;-43
2022/08/17 12:07:20;;;;;;;;;;;24.80;59.00;;;;;;6214555;27;21257;-44
2022/08/17 12:10:29;;;;;;;;;;;25.00;59.70;;;;;;6214010;27;19939;-43
2022/08/17 12:13:32;;;;;;;;;;;24.90;59.00;;;;;;6214278;27;20414;-42
2022/08/17 12:16:42;;;;;;;;;;;24.80;58.90;;;;;;6228953;27;19927;-43
2022/08/17 12:19:44;;;;;;;;;;;24.90;58.90;;;;;;6258962;27;19966;-44
2022/08/17 12:22:52;;;;;;;;;;;25.00;59.10;;;;;;6255143;27;23937;-44
2022/08/17 12:25:55;;;;;;;;;;;24.90;58.90;;;;;;6212328;27;19937;-43
2022/08/17 12:29:00;;;;;;;;;;;24.80;58.90;;;;;;6241767;27;20008;-42
2022/08/17 12:32:04;;;;;;;;;;;25.00;59.10;;;;;;6232370;27;19923;-41
2022/08/17 12:35:16;;;;;;;;;;;25.20;58.80;;;;;;6228693;27;20050;-44
2022/08/17 12:38:18;;;;;;;;;;;25.00;58.40;;;;;;6244161;27;19927;-41
2022/08/17 12:41:39;;;;;;;;;;;25.10;58.40;;;;;;6253244;27;19941;-41
2022/08/17 12:44:42;;;;;;;;;;;25.10;58.30;;;;;;6231401;27;20739;-44
2022/08/17 12:47:58;;;;;;;;;;;25.20;58.30;;;;;;6233444;27;19936;-40
2022/08/17 12:51:01;;;;;;;;;;;25.00;58.00;;;;;;6240200;27;19934;-41
2022/08/17 12:54:03;;;;;;;;;;;25.20;58.00;;;;;;6229846;27;22722;-39
2022/08/17 12:57:08;;;;;;;;;;;25.40;58.00;;;;;;6238936;27;20118;-42
2022/08/17 13:00:15;;;;;;;;;;;25.30;57.80;;;;;;6213605;27;19974;-40
2022/08/17 13:03:18;;;;;;;;;;;25.40;57.80;;;;;;6226091;27;19970;-38
2022/08/17 13:06:25;;;;;;;;;;;25.50;57.80;;;;;;6223717;27;19931;-41
2022/08/17 13:09:28;;;;;;;;;;;25.50;57.80;;;;;;6241744;27;20061;-40
2022/08/17 13:12:41;;;;;;;;;;;25.40;57.70;;;;;;6232627;27;21738;-40
2022/08/17 13:15:50;;;;;;;;;;;25.50;57.70;;;;;;6210446;27;29815;-41
2022/08/17 13:18:53;;;;;;;;;;;25.40;58.00;;;;;;6235100;27;25856;-41
2022/08/17 13:21:56;;;;;;;;;;;25.60;57.50;;;;;;6203690;27;28015;-40
2022/08/17 13:25:02;;;;;;;;;;;25.60;57.40;;;;;;6232478;27;20079;-39
2022/08/17 13:28:04;;;;;;;;;;;25.60;57.30;;;;;;6235111;27;28831;-39
2022/08/17 13:31:15;;;;;;;;;;;25.60;57.20;;;;;;6211398;27;19927;-41
2022/08/17 13:34:34;;;;;;;;;;;25.70;57.30;;;;;;6249822;27;19933;-41
2022/08/17 13:37:52;;;;;;;;;;;25.80;57.30;;;;;;6236292;27;23188;-39
2022/08/17 13:40:54;;;;;;;;;;;25.80;57.20;;;;;;6215215;27;19926;-41
2022/08/17 13:43:56;;;;;;;;;;;25.60;57.10;;;;;;6218400;27;29179;-41
2022/08/17 13:46:58;;;;;;;;;;;25.80;57.20;;;;;;6208263;27;20046;-41
2022/08/17 13:50:00;;;;;;;;;;;25.80;57.10;;;;;;6189179;27;19927;-40
2022/08/17 13:53:01;;;;;;;;;;;25.80;57.20;;;;;;6224636;27;19927;-39
2022/08/17 13:56:06;;;;;;;;;;;25.80;57.10;;;;;;6242881;27;19948;-39
2022/08/17 13:59:31;;;;;;;;;;;25.80;57.10;;;;;;6215290;27;19934;-39
2022/08/17 14:02:52;;;;;;;;;;;25.60;57.00;;;;;;6220169;27;22829;-41
2022/08/17 14:05:54;;;;;;;;;;;25.80;57.20;;;;;;6208217;27;20584;-39
2022/08/17 14:08:55;;;;;;;;;;;25.90;57.20;;;;;;6212008;27;19927;-39
2022/08/17 14:11:57;;;;;;;;;;;25.70;57.10;;;;;;6230229;27;19977;-40
2022/08/17 14:14:59;;;;;;;;;;;25.80;57.10;;;;;;6229326;27;19927;-40
2022/08/17 14:18:01;;;;;;;;;;;25.80;57.10;;;;;;6206239;27;19974;-40
2022/08/17 14:21:02;;;;;;;;;;;25.90;57.20;;;;;;6232390;27;20531;-39
2022/08/17 14:24:07;;;;;;;;;;;25.80;57.10;;;;;;6228273;27;19927;-41
2022/08/17 14:27:09;;;;;;;;;;;25.80;57.20;;;;;;6227725;27;20069;-40
2022/08/17 14:30:10;;;;;;;;;;;25.80;57.10;;;;;;6222019;27;19966;-41
2022/08/17 14:33:13;;;;;;;;;;;25.80;57.00;;;;;;6228579;27;19927;-39
2022/08/17 14:36:14;;;;;;;;;;;25.90;57.10;;;;;;6226421;27;20023;-39
2022/08/17 14:39:19;;;;;;;;;;;26.00;57.10;;;;;;6248582;27;19935;-42
2022/08/17 14:42:23;;;;;;;;;;;26.00;57.10;;;;;;6238361;27;28141;-40
2022/08/17 14:45:25;;;;;;;;;;;26.00;57.10;;;;;;6234864;27;20012;-38
2022/08/17 14:48:37;;;;;;;;;;;25.90;56.90;;;;;;6248792;27;37947;-39
2022/08/17 14:51:40;;;;;;;;;;;25.90;56.80;;;;;;6223644;27;37214;-41
2022/08/17 14:54:47;;;;;;;;;;;25.90;56.80;;;;;;6228281;27;19927;-38
2022/08/17 14:57:49;;;;;;;;;;;25.90;56.80;;;;;;6249255;27;19934;-39
2022/08/17 15:00:51;;;;;;;;;;;25.80;56.70;;;;;;6244633;27;20795;-39
2022/08/17 15:03:53;;;;;;;;;;;26.00;56.90;;;;;;6236309;27;19999;-40
2022/08/17 15:06:57;;;;;;;;;;;25.90;56.80;;;;;;6225302;27;21356;-38
2022/08/17 15:10:03;;;;;;;;;;;25.90;56.80;;;;;;6226790;27;19933;-38
2022/08/17 15:13:09;;;;;;;;;;;25.80;56.80;;;;;;6238595;27;19933;-41
2022/08/17 15:16:12;;;;;;;;;;;26.00;56.80;;;;;;6199212;27;20122;-39
2022/08/17 15:19:14;;;;;;;;;;;26.00;56.80;;;;;;5979788;27;19934;-38
2022/08/17 15:22:17;;;;;;;;;;;26.00;56.80;;;;;;6242951;27;21348;-41
2022/08/17 15:25:20;;;;;;;;;;;25.90;56.60;;;;;;6233814;27;26340;-39
2022/08/17 15:28:23;;;;;;;;;;;25.90;56.70;;;;;;6259921;27;20029;-41
2022/08/17 15:31:25;;;;;;;;;;;26.00;57.40;;;;;;6245362;27;20131;-38
2022/08/17 15:34:33;;;;;;;;;;;26.00;56.70;;;;;;6244002;27;20038;-40
2022/08/17 15:37:35;;;;;;;;;;;26.10;56.80;;;;;;6257232;27;19990;-40
2022/08/17 15:40:38;;;;;;;;;;;25.80;56.70;;;;;;6265457;27;20051;-39
2022/08/17 15:43:40;;;;;;;;;;;26.10;57.00;;;;;;6259080;27;19926;-38
2022/08/17 15:46:41;;;;;;;;;;;25.90;56.70;;;;;;6252302;27;19931;-38
2022/08/17 15:49:44;;;;;;;;;;;25.80;56.60;;;;;;6258101;27;19946;-39
2022/08/17 15:52:46;;;;;;;;;;;25.80;56.60;;;;;;6271684;27;19998;-38
2022/08/17 15:55:47;;;;;;;;;;;25.80;56.70;;;;;;6259089;27;20065;-38
2022/08/17 15:58:53;;;;;;;;;;;25.90;56.80;;;;;;6261488;27;19998;-39
2022/08/17 16:01:55;;;;;;;;;;;25.90;56.80;;;;;;6250738;27;28075;-39
2022/08/17 16:05:20;;;;;;;;;;;25.90;56.80;;;;;;6210345;27;19975;-39
2022/08/17 16:08:27;;;;;;;;;;;25.90;56.90;;;;;;6222112;27;19995;-39
2022/08/17 16:11:29;;;;;;;;;;;25.90;56.90;;;;;;6275583;27;20050;-41
2022/08/17 16:14:30;;;;;;;;;;;25.80;56.80;;;;;;6277028;27;20896;-40
2022/08/17 16:17:36;;;;;;;;;;;25.90;56.90;;;;;;6283610;27;19963;-40
2022/08/17 16:20:41;;;;;;;;;;;26.00;57.00;;;;;;6273132;27;20288;-40
2022/08/17 16:23:43;;;;;;;;;;;26.00;57.00;;;;;;6282940;27;20235;-38
2022/08/17 16:26:44;;;;;;;;;;;25.70;56.80;;;;;;6264698;27;20015;-38
2022/08/17 16:29:47;;;;;;;;;;;26.00;57.60;;;;;;6285393;27;20122;-38
2022/08/17 16:32:56;;;;;;;;;;;25.70;56.80;;;;;;6281216;27;20002;-39
2022/08/17 16:35:58;;;;;;;;;;;25.80;56.90;;;;;;6288488;27;20196;-40
2022/08/17 16:39:00;;;;;;;;;;;25.90;57.00;;;;;;6287281;27;19949;-38
2022/08/17 16:42:01;;;;;;;;;;;26.00;57.10;;;;;;6288236;27;20092;-38
2022/08/17 16:45:06;;;;;;;;;;;25.90;57.10;;;;;;6300202;27;20901;-39
2022/08/17 16:48:08;;;;;;;;;;;25.80;57.00;;;;;;6286454;27;20322;-38
2022/08/17 16:51:09;;;;;;;;;;;25.80;57.10;;;;;;6267245;27;19925;-39
2022/08/17 16:54:10;;;;;;;;;;;25.70;57.10;;;;;;6288846;27;20409;-38
2022/08/17 16:57:19;;;;;;;;;;;26.00;57.30;;;;;;6297697;27;19927;-39
2022/08/17 17:00:21;;;;;;;;;;;25.70;57.20;;;;;;6294631;27;20038;-38
2022/08/17 17:03:24;;;;;;;;;;;25.60;57.10;;;;;;6296477;27;19962;-41
2022/08/17 17:06:31;;;;;;;;;;;25.70;57.20;;;;;;6270116;27;20186;-40
2022/08/17 17:09:35;;;;;;;;;;;25.70;57.30;;;;;;6272338;27;20063;-38
2022/08/17 17:12:38;;;;;;;;;;;25.70;57.30;;;;;;6282783;27;20907;-39
2022/08/17 17:16:05;;;;;;;;;;;25.50;57.20;;;;;;6265523;27;20255;-40
2022/08/17 17:19:14;;;;;;;;;;;25.50;57.30;;;;;;6284310;27;19926;-40
2022/08/17 17:22:19;;;;;;;;;;;25.50;57.30;;;;;;6289932;27;20744;-39
2022/08/17 17:25:25;;;;;;;;;;;25.60;57.40;;;;;;6288907;27;20086;-38
2022/08/17 17:28:33;;;;;;;;;;;25.40;57.40;;;;;;6302894;27;19955;-38
2022/08/17 17:31:38;;;;;;;;;;;25.40;57.40;;;;;;6305307;27;19927;-39
2022/08/17 17:34:41;;;;;;;;;;;25.50;57.50;;;;;;6308340;27;19930;-39
2022/08/17 17:37:44;;;;;;;;;;;25.30;57.40;;;;;;6292550;27;19920;-38
2022/08/17 17:40:48;;;;;;;;;;;25.50;57.60;;;;;;6306470;27;19934;-38
2022/08/17 17:43:51;;;;;;;;;;;25.50;57.70;;;;;;6289344;27;20045;-37
2022/08/17 17:46:55;;;;;;;;;;;25.40;57.60;;;;;;6291860;27;20418;-40
2022/08/17 17:49:59;;;;;;;;;;;25.30;57.60;;;;;;6289280;27;20034;-39
2022/08/17 17:53:03;;;;;;;;;;;25.60;57.80;;;;;;6299815;27;20362;-38
2022/08/17 17:56:09;;;;;;;;;;;25.50;57.80;;;;;;6299003;27;20720;-41
2022/08/17 17:59:34;;;;;;;;;;;25.20;57.60;;;;;;6278314;27;19950;-38
2022/08/17 18:02:48;;;;;;;;;;;25.30;57.70;;;;;;6298157;27;20209;-41
2022/08/17 18:05:58;;;;;;;;;;;25.30;57.70;;;;;;6297162;27;20228;-38
2022/08/17 18:09:07;;;;;;;;;;;25.20;57.70;;;;;;6275653;27;20162;-39
2022/08/17 18:12:28;;;;;;;;;;;25.50;58.00;;;;;;6281053;27;20019;-39
2022/08/17 18:15:34;;;;;;;;;;;25.40;57.90;;;;;;6294345;27;20248;-39
2022/08/17 18:18:37;;;;;;;;;;;25.50;58.00;;;;;;6288480;27;20525;-39
2022/08/17 18:21:43;;;;;;;;;;;25.20;57.80;;;;;;6279883;27;20583;-38
2022/08/17 18:24:45;;;;;;;;;;;25.50;58.10;;;;;;6275478;27;20330;-40
2022/08/17 18:27:49;;;;;;;;;;;25.20;58.10;;;;;;6308730;27;19954;-38
2022/08/17 18:31:04;;;;;;;;;;;25.30;58.10;;;;;;6314824;27;20888;-39
2022/08/17 18:34:14;;;;;;;;;;;25.30;58.10;;;;;;6308634;27;20067;-39